createdAt,value
2022-08-14T00:02:22.913Z,6.50
2022-08-14T00:04:55.766Z,4.72
2022-08-14T00:07:25.196Z,6.22
2022-08-14T00:10:49.245Z,4.18
2022-08-14T00:12:56.384Z,5.38
2022-08-14T00:15:43.895Z,8.82
2022-08-14T00:19:06.967Z,4.72
2022-08-14T00:21:11.258Z,7.78
2022-08-14T00:23:43.966Z,4.93
2022-08-14T00:28:59.239Z,4.80
2022-08-14T00:31:32.982Z,7.75
2022-08-14T00:34:36.507Z,4.95
2022-08-14T00:37:08.383Z,5.88
2022-08-14T00:39:42.929Z,4.95
2022-08-14T00:42:21.396Z,5.20
2022-08-14T00:45:04.373Z,8.88
2022-08-14T00:47:42.944Z,9.55
2022-08-14T00:50:19.759Z,6.43
2022-08-14T00:52:54.078Z,10.43
2022-08-14T00:55:24.583Z,5.72
2022-08-14T00:58:08.107Z,6.80
2022-08-14T01:00:43.134Z,10.20
2022-08-14T01:03:23.016Z,5.22
2022-08-14T01:05:54.680Z,5.78
2022-08-14T01:08:51.769Z,11.55
2022-08-14T01:14:01.171Z,6.97
2022-08-14T01:16:33.008Z,12.70
2022-08-14T01:19:23.131Z,7.50
2022-08-14T01:21:56.179Z,6.68
2022-08-14T01:24:30.836Z,6.05
2022-08-14T01:27:07.108Z,8.80
2022-08-14T01:32:30.044Z,10.40
2022-08-14T01:35:20.999Z,7.53
2022-08-14T01:37:57.040Z,11.88
2022-08-14T01:40:33.159Z,7.85
2022-08-14T01:43:14.762Z,6.68
2022-08-14T01:45:48.974Z,6.57
2022-08-14T01:48:33.454Z,9.03
2022-08-14T01:51:18.698Z,6.70
2022-08-14T01:53:56.265Z,8.68
2022-08-14T01:56:39.141Z,14.23
2022-08-14T01:59:18.121Z,8.65
2022-08-14T02:01:51.494Z,6.60
2022-08-14T02:04:54.804Z,7.40
2022-08-14T02:07:27.228Z,16.88
2022-08-14T02:10:16.270Z,8.52
2022-08-14T02:12:57.112Z,9.18
2022-08-14T02:15:28.238Z,6.88
2022-08-14T02:18:01.986Z,6.82
2022-08-14T02:20:33.883Z,7.30
2022-08-14T02:23:05.682Z,7.63
2022-08-14T02:25:39.661Z,8.07
2022-08-14T02:28:24.454Z,9.77
2022-08-14T02:31:00.937Z,10.15
2022-08-14T02:33:33.759Z,19.00
2022-08-14T02:37:04.554Z,7.63
2022-08-14T02:39:02.606Z,11.38
2022-08-14T02:41:38.943Z,9.13
2022-08-14T02:44:11.558Z,8.43
2022-08-14T02:46:44.955Z,8.93
2022-08-14T02:49:33.930Z,10.02
2022-08-14T02:52:16.032Z,10.15
2022-08-14T02:57:39.241Z,10.55
2022-08-14T03:00:18.676Z,13.00
2022-08-14T03:02:58.684Z,9.80
2022-08-14T03:05:35.912Z,9.00
2022-08-14T03:08:08.521Z,8.23
2022-08-14T03:10:42.038Z,8.23
2022-08-14T03:13:22.147Z,9.30
2022-08-14T03:15:55.907Z,8.88
2022-08-14T03:18:30.734Z,10.70
2022-08-14T03:21:02.284Z,11.00
2022-08-14T03:23:36.342Z,8.02
2022-08-14T03:26:12.933Z,8.38
2022-08-14T03:28:51.992Z,14.15
2022-08-14T03:31:25.983Z,16.33
2022-08-14T03:34:00.560Z,11.25
2022-08-14T03:37:39.165Z,9.80
2022-08-14T03:39:24.277Z,10.60
2022-08-14T03:41:59.960Z,12.45
2022-08-14T03:45:18.632Z,9.10
2022-08-14T03:47:38.167Z,12.50
2022-08-14T03:50:30.922Z,11.98
2022-08-14T03:53:03.270Z,11.60
2022-08-14T03:55:35.048Z,9.38
2022-08-14T03:58:09.495Z,12.32
2022-08-14T04:00:46.419Z,10.35
2022-08-14T04:03:24.394Z,10.82
2022-08-14T04:05:58.177Z,9.60
2022-08-14T04:08:31.629Z,12.93
2022-08-14T04:11:10.291Z,12.95
2022-08-14T04:13:43.725Z,10.13
2022-08-14T04:16:20.847Z,21.50
2022-08-14T04:18:53.246Z,10.40
2022-08-14T04:21:25.752Z,11.32
2022-08-14T04:23:58.481Z,12.15
2022-08-14T04:26:43.043Z,10.65
2022-08-14T04:29:16.066Z,10.63
2022-08-14T04:32:58.245Z,10.68
2022-08-14T04:34:42.235Z,11.18
2022-08-14T04:37:41.055Z,11.05
2022-08-14T04:40:30.693Z,11.30
2022-08-14T04:43:19.457Z,13.15
2022-08-14T04:45:52.269Z,11.32
2022-08-14T04:48:31.643Z,11.73
2022-08-14T04:51:16.765Z,10.38
2022-08-14T04:53:48.568Z,14.88
2022-08-14T04:56:34.280Z,9.85
2022-08-14T04:59:09.971Z,11.70
2022-08-14T05:01:48.903Z,10.38
2022-08-14T05:04:22.068Z,11.10
2022-08-14T05:06:54.228Z,10.73
2022-08-14T05:09:28.608Z,11.35
2022-08-14T05:12:58.497Z,12.77
2022-08-14T05:14:55.086Z,13.20
2022-08-14T05:17:31.998Z,11.77
2022-08-14T05:21:54.378Z,12.77
2022-08-14T05:23:05.133Z,13.23
2022-08-14T05:25:35.193Z,10.70
2022-08-14T05:28:16.337Z,12.57
2022-08-14T05:30:52.780Z,13.48
2022-08-14T05:33:36.597Z,10.70
2022-08-14T05:36:16.472Z,16.70
2022-08-14T05:38:48.233Z,12.07
2022-08-14T05:41:19.624Z,11.63
2022-08-14T05:43:49.540Z,11.85
2022-08-14T05:46:22.973Z,10.30
2022-08-14T05:48:54.296Z,12.60
2022-08-14T05:51:25.782Z,16.67
2022-08-14T05:54:01.745Z,14.57
2022-08-14T05:56:42.568Z,12.82
2022-08-14T05:59:12.901Z,12.40
2022-08-14T06:01:48.063Z,16.15
2022-08-14T06:04:20.184Z,12.10
2022-08-14T06:06:50.541Z,13.55
2022-08-14T06:09:22.763Z,12.57
2022-08-14T06:11:53.973Z,15.25
2022-08-14T06:14:25.616Z,9.25
2022-08-14T06:16:55.889Z,15.23
2022-08-14T06:19:25.303Z,12.13
2022-08-14T06:21:56.369Z,11.80
2022-08-14T06:24:30.488Z,21.83
2022-08-14T06:27:10.174Z,12.82
2022-08-14T06:29:42.362Z,13.63
2022-08-14T06:32:37.574Z,14.15
2022-08-14T06:35:09.552Z,14.73
2022-08-14T06:37:47.029Z,11.63
2022-08-14T06:40:27.600Z,9.85
2022-08-14T06:43:03.461Z,11.32
2022-08-14T06:45:33.237Z,13.57
2022-08-14T06:48:12.515Z,10.75
2022-08-14T06:50:42.024Z,13.02
2022-08-14T06:53:19.860Z,17.90
2022-08-14T06:55:58.167Z,10.93
2022-08-14T06:58:31.310Z,11.98
2022-08-14T07:01:26.716Z,11.77
2022-08-14T07:04:24.048Z,18.98
2022-08-14T07:06:58.970Z,13.63
2022-08-14T07:09:43.935Z,15.35
2022-08-14T07:15:11.773Z,26.73
2022-08-14T07:17:52.035Z,23.73
2022-08-14T07:20:31.139Z,22.55
2022-08-14T07:23:07.001Z,10.73
2022-08-14T07:25:39.714Z,10.00
2022-08-14T07:28:20.717Z,9.90
2022-08-14T07:30:51.992Z,14.23
2022-08-14T07:33:28.887Z,10.43
2022-08-14T07:36:26.438Z,11.55
2022-08-14T07:38:52.602Z,8.73
2022-08-14T07:41:22.896Z,10.45
2022-08-14T07:43:55.643Z,8.73
2022-08-14T07:46:29.160Z,11.77
2022-08-14T07:49:00.286Z,8.10
2022-08-14T07:51:37.149Z,8.95
2022-08-14T07:54:11.337Z,7.65
2022-08-14T07:56:46.877Z,15.63
2022-08-14T07:59:21.080Z,12.48
2022-08-14T08:02:18.694Z,10.85
2022-08-14T08:04:54.026Z,8.77
2022-08-14T08:07:30.061Z,8.52
2022-08-14T08:10:02.311Z,11.57
2022-08-14T08:12:33.509Z,9.30
2022-08-14T08:15:07.145Z,9.02
2022-08-14T08:17:42.623Z,12.02
2022-08-14T08:20:27.145Z,9.90
2022-08-14T08:23:06.148Z,13.50
2022-08-14T08:25:41.004Z,27.67
2022-08-14T08:28:22.022Z,19.25
2022-08-14T08:30:53.488Z,8.50
2022-08-14T08:33:25.883Z,8.15
2022-08-14T08:36:03.804Z,7.05
2022-08-14T08:39:17.743Z,8.40
2022-08-14T08:41:25.197Z,10.63
2022-08-14T08:44:05.802Z,8.80
2022-08-14T08:46:48.007Z,7.15
2022-08-14T08:49:18.515Z,7.55
2022-08-14T08:51:47.999Z,8.63
2022-08-14T08:54:19.603Z,7.15
2022-08-14T08:56:52.074Z,12.88
2022-08-14T08:59:27.265Z,11.13
2022-08-14T09:02:06.310Z,9.18
2022-08-14T09:04:45.347Z,6.80
2022-08-14T09:07:27.885Z,10.40
2022-08-14T09:09:59.676Z,14.90
2022-08-14T09:12:34.148Z,13.98
2022-08-14T09:15:11.707Z,11.88
2022-08-14T09:17:42.754Z,7.13
2022-08-14T09:20:25.832Z,8.57
2022-08-14T09:23:00.171Z,5.43
2022-08-14T09:26:00.933Z,5.70
2022-08-14T09:28:20.755Z,9.27
2022-08-14T09:30:57.707Z,22.40
2022-08-14T09:33:56.061Z,16.02
2022-08-14T09:37:03.143Z,14.50
2022-08-14T09:39:47.831Z,7.97
2022-08-14T09:42:50.201Z,9.48
2022-08-14T09:45:24.115Z,7.05
2022-08-14T09:47:57.109Z,6.35
2022-08-14T09:50:29.997Z,9.25
2022-08-14T09:53:02.854Z,6.18
2022-08-14T09:55:42.724Z,7.38
2022-08-14T09:58:19.836Z,7.50
2022-08-14T10:00:55.073Z,4.93
2022-08-14T10:03:34.251Z,7.07
2022-08-14T10:06:10.153Z,6.00
2022-08-14T10:08:51.145Z,7.35
2022-08-14T10:11:24.881Z,8.27
2022-08-14T10:14:29.528Z,6.57
2022-08-14T10:17:09.195Z,8.75
2022-08-14T10:19:50.586Z,8.05
2022-08-14T10:23:21.769Z,9.38
2022-08-14T10:25:20.076Z,8.05
2022-08-14T10:27:59.062Z,6.88
2022-08-14T10:30:37.944Z,9.35
2022-08-14T10:33:08.341Z,5.18
2022-08-14T10:35:47.854Z,4.55
2022-08-14T10:38:28.493Z,4.00
2022-08-14T10:41:13.500Z,4.13
2022-08-14T10:43:43.081Z,4.97
2022-08-14T10:47:36.449Z,5.38
2022-08-14T10:49:06.473Z,9.35
2022-08-14T10:51:39.718Z,6.47
2022-08-14T10:54:26.326Z,4.47
2022-08-14T10:57:12.421Z,5.07
2022-08-14T10:59:48.009Z,6.83
2022-08-14T11:02:44.601Z,5.00
2022-08-14T11:05:20.294Z,5.20
2022-08-14T11:08:00.430Z,6.53
2022-08-14T11:10:43.899Z,4.15
2022-08-14T11:13:18.784Z,12.57
2022-08-14T11:15:49.232Z,5.40
2022-08-14T11:18:20.507Z,4.22
2022-08-14T11:21:02.156Z,3.25
2022-08-14T11:23:38.332Z,7.75
2022-08-14T11:26:10.201Z,9.30
2022-08-14T11:28:47.032Z,3.60
2022-08-14T11:31:22.221Z,3.97
2022-08-14T11:33:55.483Z,4.25
2022-08-14T11:36:57.163Z,5.03
2022-08-14T11:39:33.328Z,7.28
2022-08-14T11:42:55.596Z,3.65
2022-08-14T11:44:59.885Z,3.97
2022-08-14T11:47:35.362Z,3.42
2022-08-14T11:50:33.760Z,4.05
2022-08-14T11:53:08.514Z,2.83
2022-08-14T11:55:40.031Z,3.10
2022-08-14T12:01:01.933Z,2.90
2022-08-14T12:03:51.634Z,3.30
2022-08-14T12:06:29.787Z,4.38
2022-08-14T12:09:15.274Z,4.00
2022-08-14T12:11:47.500Z,4.07
2022-08-14T12:14:30.210Z,2.50
2022-08-14T12:17:12.054Z,6.00
2022-08-14T12:19:51.540Z,4.15
2022-08-14T12:22:38.113Z,4.97
2022-08-14T12:25:11.697Z,3.88
2022-08-14T12:27:53.459Z,2.50
2022-08-14T12:30:38.107Z,8.25
2022-08-14T12:33:27.135Z,7.57
2022-08-14T12:36:06.135Z,5.00
2022-08-14T12:38:38.340Z,4.65
2022-08-14T12:41:16.443Z,2.90
2022-08-14T12:43:55.596Z,3.83
2022-08-14T12:46:28.923Z,7.40
2022-08-14T12:48:59.509Z,2.95
2022-08-14T12:51:30.717Z,5.40
2022-08-14T12:54:01.491Z,6.82
2022-08-14T12:56:34.113Z,4.90
2022-08-14T12:59:05.657Z,3.42
2022-08-14T13:01:59.843Z,3.60
2022-08-14T13:04:25.515Z,3.78
2022-08-14T13:06:54.170Z,2.40
2022-08-14T13:09:35.746Z,7.95
2022-08-14T13:12:31.871Z,2.83
2022-08-14T13:14:59.848Z,4.07
2022-08-14T13:17:37.937Z,4.25
2022-08-14T13:20:10.682Z,6.63
2022-08-14T13:22:56.143Z,3.38
2022-08-14T13:25:27.376Z,4.03
2022-08-14T13:27:59.433Z,2.55
2022-08-14T13:33:00.201Z,2.90
2022-08-14T13:35:30.031Z,3.13
2022-08-14T13:37:58.775Z,4.55
2022-08-14T13:40:29.920Z,2.88
2022-08-14T13:45:59.665Z,3.30
2022-08-14T13:48:32.363Z,5.13
2022-08-14T13:51:08.058Z,2.83
2022-08-14T13:54:07.165Z,4.50
2022-08-14T13:56:39.500Z,5.97
2022-08-14T13:59:10.116Z,2.97
2022-08-14T14:01:43.505Z,3.42
2022-08-14T14:04:19.022Z,2.97
2022-08-14T14:06:51.252Z,4.78
2022-08-14T14:09:32.611Z,2.60
2022-08-14T14:12:38.506Z,4.60
2022-08-14T14:15:09.672Z,4.15
2022-08-14T14:20:15.259Z,4.60
2022-08-14T14:23:03.641Z,7.18
2022-08-14T14:25:46.351Z,9.02
2022-08-14T14:28:24.222Z,6.57
2022-08-14T14:30:57.310Z,10.50
2022-08-14T14:33:49.867Z,10.18
2022-08-14T14:36:21.951Z,4.63
2022-08-14T14:38:54.796Z,3.47
2022-08-14T14:41:25.371Z,4.68
2022-08-14T14:43:55.752Z,6.20
2022-08-14T14:46:36.824Z,4.97
2022-08-14T14:49:14.717Z,3.75
2022-08-14T14:51:51.571Z,6.10
2022-08-14T14:54:31.048Z,7.78
2022-08-14T14:57:02.554Z,3.20
2022-08-14T14:59:33.593Z,3.97
2022-08-14T15:02:08.184Z,4.00
2022-08-14T15:04:43.698Z,13.23
2022-08-14T15:07:13.134Z,5.75
2022-08-14T15:09:45.458Z,6.90
2022-08-14T15:15:09.006Z,6.60
2022-08-14T15:17:40.793Z,6.68
2022-08-14T15:20:17.286Z,5.72
2022-08-14T15:23:07.957Z,11.45
2022-08-14T15:25:41.472Z,8.93
2022-08-14T15:28:13.156Z,5.45
2022-08-14T15:30:58.036Z,13.82
2022-08-14T15:34:33.147Z,4.32
2022-08-14T15:36:36.148Z,5.47
2022-08-14T15:39:06.570Z,5.55
2022-08-14T15:41:41.659Z,3.78
2022-08-14T15:44:25.485Z,4.57
2022-08-14T15:46:58.229Z,3.53
2022-08-14T15:49:34.484Z,3.80
2022-08-14T15:52:07.209Z,7.68
2022-08-14T15:54:37.752Z,7.32
2022-08-14T15:57:09.944Z,7.30
2022-08-14T15:59:58.523Z,6.07
2022-08-14T16:02:28.788Z,5.63
2022-08-14T16:04:58.077Z,3.92
2022-08-14T16:07:28.856Z,9.10
2022-08-14T16:10:27.555Z,5.60
2022-08-14T16:12:47.959Z,4.70
2022-08-14T16:15:17.947Z,5.30
2022-08-14T16:17:48.139Z,5.68
2022-08-14T16:23:13.564Z,4.07
2022-08-14T16:25:45.741Z,5.45
2022-08-14T16:28:27.651Z,9.33
2022-08-14T16:30:58.013Z,4.97
2022-08-14T16:33:58.766Z,7.65
2022-08-14T16:36:30.409Z,4.25
2022-08-14T16:39:03.042Z,4.93
2022-08-14T16:40:24.002Z,5.05
2022-08-14T16:41:32.645Z,8.43
2022-08-14T16:44:13.767Z,4.97
2022-08-14T16:46:57.202Z,9.55
2022-08-14T16:50:03.472Z,7.10
2022-08-14T16:52:25.892Z,7.70
2022-08-14T16:55:11.415Z,7.00
2022-08-14T16:57:49.963Z,13.23
2022-08-14T17:00:32.900Z,16.67
2022-08-14T17:03:12.544Z,9.80
2022-08-14T17:05:46.705Z,6.53
2022-08-14T17:08:32.887Z,5.13
2022-08-14T17:11:10.936Z,6.20
2022-08-14T17:13:58.677Z,5.88
2022-08-14T17:16:35.694Z,6.03
2022-08-14T17:19:13.403Z,7.10
2022-08-14T17:21:46.832Z,6.30
2022-08-14T17:24:57.130Z,6.32
2022-08-14T17:27:18.131Z,8.75
2022-08-14T17:29:56.245Z,8.32
2022-08-14T17:32:29.318Z,6.18
2022-08-14T17:35:16.286Z,10.93
2022-08-14T17:37:48.661Z,8.02
2022-08-14T17:40:31.963Z,8.98
2022-08-14T17:43:04.602Z,4.60
2022-08-14T17:45:45.536Z,3.83
2022-08-14T17:49:15.487Z,6.75
2022-08-14T17:51:23.764Z,6.68
2022-08-14T17:54:02.617Z,4.43
2022-08-14T17:56:34.105Z,5.78
2022-08-14T17:59:07.176Z,6.75
2022-08-14T18:01:38.862Z,3.90
2022-08-14T18:04:28.424Z,6.60
2022-08-14T18:07:16.893Z,9.82
2022-08-14T18:09:56.997Z,7.25
2022-08-14T18:12:36.865Z,7.22
2022-08-14T18:15:17.386Z,3.88
2022-08-14T18:17:53.929Z,8.52
2022-08-14T18:21:24.035Z,12.80
2022-08-14T18:23:14.908Z,9.48
2022-08-14T18:25:49.552Z,5.97
2022-08-14T18:28:50.928Z,10.70
2022-08-14T18:31:42.044Z,8.80
2022-08-14T18:37:17.672Z,6.88
2022-08-14T18:40:02.907Z,9.50
2022-08-14T18:42:46.781Z,4.90
2022-08-14T18:48:15.846Z,5.18
2022-08-14T18:50:52.757Z,10.70
2022-08-14T18:53:25.532Z,4.63
2022-08-14T18:56:09.468Z,5.63
2022-08-14T18:58:49.502Z,9.27
2022-08-14T19:01:30.688Z,5.88
2022-08-14T19:04:04.106Z,6.15
2022-08-14T19:06:40.522Z,7.15
2022-08-14T19:09:30.276Z,5.82
2022-08-14T19:12:02.405Z,9.30
2022-08-14T19:14:48.392Z,9.30
2022-08-14T19:18:11.340Z,7.20
2022-08-14T19:20:53.304Z,6.85
2022-08-14T19:23:42.787Z,10.85
2022-08-14T19:26:35.832Z,6.95
2022-08-14T19:29:24.296Z,5.90
2022-08-14T19:31:56.239Z,18.85
2022-08-14T19:34:36.577Z,13.52
2022-08-14T19:37:10.691Z,10.25
2022-08-14T19:39:48.359Z,7.18
2022-08-14T19:42:28.407Z,6.43
2022-08-14T19:45:00.115Z,6.90
2022-08-14T19:47:41.034Z,5.75
2022-08-14T19:53:12.086Z,5.70
2022-08-14T19:56:01.348Z,6.18
2022-08-14T19:58:54.823Z,9.57
2022-08-14T20:01:36.711Z,9.57
2022-08-14T20:04:45.062Z,6.10
2022-08-14T20:07:04.417Z,6.82
2022-08-14T20:11:05.758Z,9.50
2022-08-14T20:12:35.403Z,9.13
2022-08-14T20:15:10.303Z,6.55
2022-08-14T20:17:41.081Z,6.40
2022-08-14T20:20:21.034Z,9.63
2022-08-14T20:23:02.009Z,9.80
2022-08-14T20:25:37.712Z,7.57
2022-08-14T20:28:32.212Z,14.18
2022-08-14T20:31:17.828Z,7.10
2022-08-14T20:34:24.256Z,10.30
2022-08-14T20:37:04.415Z,7.50
2022-08-14T20:39:36.137Z,7.50
2022-08-14T20:42:31.116Z,6.90
2022-08-14T20:45:24.135Z,9.90
2022-08-14T20:48:01.338Z,6.45
2022-08-14T20:50:32.059Z,7.45
2022-08-14T20:53:08.163Z,8.95
2022-08-14T20:55:45.128Z,9.27
2022-08-14T21:01:34.787Z,6.20
2022-08-14T21:04:24.312Z,7.35
2022-08-14T21:07:24.925Z,8.50
2022-08-14T21:10:04.907Z,7.35
2022-08-14T21:12:36.001Z,6.53
2022-08-14T21:15:10.068Z,6.78
2022-08-14T21:17:43.333Z,7.10
2022-08-14T21:20:25.768Z,8.43
2022-08-14T21:23:01.261Z,11.68
2022-08-14T21:25:32.203Z,9.10
2022-08-14T21:28:04.184Z,7.63
2022-08-14T21:30:51.826Z,7.57
2022-08-14T21:33:23.658Z,10.05
2022-08-14T21:35:55.006Z,8.48
2022-08-14T21:41:41.684Z,8.13
2022-08-14T21:44:17.841Z,7.55
2022-08-14T21:46:53.571Z,9.40
2022-08-14T21:49:33.995Z,7.53
2022-08-14T21:52:50.350Z,7.88
2022-08-14T21:55:09.301Z,7.13
2022-08-14T21:58:04.107Z,8.15
2022-08-14T22:00:39.456Z,12.60
2022-08-14T22:03:14.312Z,10.70
2022-08-14T22:05:46.270Z,7.20
2022-08-14T22:08:19.582Z,7.82
2022-08-14T22:10:51.680Z,11.98
2022-08-14T22:13:26.721Z,9.60
2022-08-14T22:16:02.000Z,8.07
2022-08-14T22:18:32.286Z,8.05
2022-08-14T22:21:05.828Z,8.57
2022-08-14T22:23:37.133Z,8.07
2022-08-14T22:26:07.320Z,9.00
2022-08-14T22:28:38.254Z,11.95
2022-08-14T22:31:23.031Z,9.80
2022-08-14T22:33:57.818Z,9.57
2022-08-14T22:36:47.654Z,10.55
2022-08-14T22:39:16.688Z,9.30
2022-08-14T22:41:56.090Z,9.05
2022-08-14T22:44:30.309Z,8.45
2022-08-14T22:47:00.187Z,8.48
2022-08-14T22:50:32.127Z,11.10
2022-08-14T22:52:33.323Z,9.52
2022-08-14T22:55:06.068Z,9.48
2022-08-14T22:57:42.101Z,14.05
2022-08-14T23:00:16.542Z,10.80
2022-08-14T23:02:49.766Z,10.35
2022-08-14T23:05:39.688Z,9.00
2022-08-14T23:08:57.038Z,12.75
2022-08-14T23:11:10.337Z,8.85
2022-08-14T23:13:43.370Z,9.32
2022-08-14T23:16:20.375Z,10.15
2022-08-14T23:18:53.993Z,12.93
2022-08-14T23:21:25.276Z,8.73
2022-08-14T23:24:00.383Z,8.80
2022-08-14T23:26:47.073Z,11.75
2022-08-14T23:29:20.430Z,13.35
2022-08-14T23:31:51.026Z,7.95
2022-08-14T23:34:22.955Z,10.60
2022-08-14T23:36:55.968Z,9.15
2022-08-14T23:39:31.179Z,10.70
2022-08-14T23:42:04.683Z,8.73
2022-08-14T23:44:36.961Z,9.10
2022-08-14T23:47:11.922Z,16.05
2022-08-14T23:50:04.170Z,9.03
2022-08-14T23:52:51.379Z,10.15
2022-08-14T23:55:32.437Z,11.02
2022-08-14T23:58:03.623Z,12.27
